< < Back
Terminal Aerodrome Forecast


Current Version              Previous Versions:   1  2  3  4  5  6  7  8  9  

Terminal Aerodrome Forecast

779
FTUS42 KFFC 262224 AAA
TAFFTY
TAF AMD
KFTY 262224Z 2622/2718 22006KT P6SM SCT050 BKN200
     FM270100 23005KT 6SM -SHRA BKN035
     FM270300 26004KT 4SM SHRA BR OVC015
     FM270600 30008KT 6SM -SHRA OVC008
     FM271100 32010KT P6SM OVC015
     FM271400 32012G18KT P6SM SCT030=

Latest METAR

189
SAUS70 KWBC 271000
MTRFTY
METAR KFTY 270953Z 31009KT 10SM OVC008 09/07 A2976 RMK AO2 SLP073
T00890067


USA.gov is the U.S. government's official web portal to all federal, state and local government web resources and services.